Map

Track Data

SID SEASON NUMBER BASIN SUBBASIN NAME ISO_TIME NATURE LAT LON WMO_WIND WMO_PRES WMO_AGENCY TRACK_TYPE DIST2LAND LANDFALL IFLAG USA_AGENCY USA_ATCF_ID USA_LAT USA_LON USA_RECORD USA_STATUS USA_WIND USA_PRES USA_SSHS USA_R34_NE USA_R34_SE USA_R34_SW USA_R34_NW USA_R50_NE USA_R50_SE USA_R50_SW USA_R50_NW USA_R64_NE USA_R64_SE USA_R64_SW USA_R64_NW USA_POCI USA_ROCI USA_RMW USA_EYE TOKYO_LAT TOKYO_LON TOKYO_GRADE TOKYO_WIND TOKYO_PRES TOKYO_R50_DIR TOKYO_R50_LONG TOKYO_R50_SHORT TOKYO_R30_DIR TOKYO_R30_LONG TOKYO_R30_SHORT TOKYO_LAND CMA_LAT CMA_LON CMA_CAT CMA_WIND CMA_PRES HKO_LAT HKO_LON HKO_CAT HKO_WIND HKO_PRES NEWDELHI_LAT NEWDELHI_LON NEWDELHI_GRADE NEWDELHI_WIND NEWDELHI_PRES NEWDELHI_CI NEWDELHI_DP NEWDELHI_POCI REUNION_LAT REUNION_LON REUNION_TYPE REUNION_WIND REUNION_PRES REUNION_TNUM REUNION_CI REUNION_RMW REUNION_R34_NE REUNION_R34_SE REUNION_R34_SW REUNION_R34_NW REUNION_R50_NE REUNION_R50_SE REUNION_R50_SW REUNION_R50_NW REUNION_R64_NE REUNION_R64_SE REUNION_R64_SW REUNION_R64_NW BOM_LAT BOM_LON BOM_TYPE BOM_WIND BOM_PRES BOM_TNUM BOM_CI BOM_RMW BOM_R34_NE BOM_R34_SE BOM_R34_SW BOM_R34_NW BOM_R50_NE BOM_R50_SE BOM_R50_SW BOM_R50_NW BOM_R64_NE BOM_R64_SE BOM_R64_SW BOM_R64_NW BOM_ROCI BOM_POCI BOM_EYE BOM_POS_METHOD BOM_PRES_METHOD NADI_LAT NADI_LON NADI_CAT NADI_WIND NADI_PRES WELLINGTON_LAT WELLINGTON_LON WELLINGTON_WIND WELLINGTON_PRES DS824_LAT DS824_LON DS824_STAGE DS824_WIND DS824_PRES TD9636_LAT TD9636_LON TD9636_STAGE TD9636_WIND TD9636_PRES TD9635_LAT TD9635_LON TD9635_WIND TD9635_PRES TD9635_ROCI NEUMANN_LAT NEUMANN_LON NEUMANN_CLASS NEUMANN_WIND NEUMANN_PRES MLC_LAT MLC_LON MLC_CLASS MLC_WIND MLC_PRES USA_GUST BOM_GUST BOM_GUST_PER REUNION_GUST REUNION_GUST_PER USA_SEAHGT USA_SEARAD_NE USA_SEARAD_SE USA_SEARAD_SW USA_SEARAD_NW STORM_SPEED STORM_DIR
1923233N21090 1923 54 NI BB NOT_NAMED 1923-08-21 00:00:00 TS 21.3000 89.8000 main 55 55 _________O____ -1 21.3000 89.8000 TC 30 0 0
1923233N21090 1923 54 NI BB NOT_NAMED 1923-08-21 03:00:00 TS 21.3000 89.8000 main 55 55 _________PO___ -1 21.3000 89.8000 TC 30 21.3000 89.8000 1 0 0
1923233N21090 1923 54 NI BB NOT_NAMED 1923-08-21 06:00:00 TS 21.3057 89.7876 main 55 55 _________OP___ -1 21.3000 89.8000 TC 30 21.3142 89.7690 1 0 0
1923233N21090 1923 54 NI BB NOT_NAMED 1923-08-21 09:00:00 TS 21.3098 89.7787 main 55 55 _________PP___ -1 21.3000 89.8000 TC 30 21.3228 89.7503 1 0 0
1923233N21090 1923 54 NI BB NOT_NAMED 1923-08-21 12:00:00 TS 21.3100 89.7783 main 55 55 _________OP___ -1 21.3000 89.8000 TC 30 21.3199 89.7565 1 0 0
1923233N21090 1923 54 NI BB NOT_NAMED 1923-08-21 15:00:00 TS 21.3000 89.8000 main 55 55 _________PO___ -1 21.3000 89.8000 TC 30 21.3000 89.8000 1 1 115
1923233N21090 1923 54 NI BB NOT_NAMED 1923-08-21 18:00:00 TS 21.2815 89.8404 main 55 55 _________OP___ -1 21.3000 89.8000 TC 30 21.2629 89.8807 1 1 116
1923233N21090 1923 54 NI BB NOT_NAMED 1923-08-21 21:00:00 TS 21.2545 89.9007 main 56 56 _________PP___ -1 21.2774 89.8524 TC 30 21.2316 89.9490 1 0 111
1923233N21090 1923 54 NI BB NOT_NAMED 1923-08-22 00:00:00 TS 21.2672 89.8714 main 56 54 _________OP___ -1 21.3000 89.8000 TC 30 21.2344 89.9428 1 2 295
1923233N21090 1923 54 NI BB NOT_NAMED 1923-08-22 03:00:00 TS 21.3524 89.6736 main 44 22 _________PO___ -1 21.4048 89.5472 TC 30 21.3000 89.8000 1 6 296
1923233N21090 1923 54 NI BB NOT_NAMED 1923-08-22 06:00:00 TS 21.5407 89.2705 main 23 0 _________OP___ -1 21.6000 89.1000 TC 30 21.4815 89.4410 1 10 297
1923233N21090 1923 54 NI BB NOT_NAMED 1923-08-22 09:00:00 TS 21.8109 88.7050 main 10 0 _________PP___ -1 21.9005 88.4657 TC 30 21.7213 88.9444 1 12 296
1923233N21090 1923 54 NI BB NOT_NAMED 1923-08-22 12:00:00 TS 22.0876 88.0877 main 0 0 _________OP___ -1 22.2000 87.8000 TC 30 21.9753 88.3754 1 12 295
1923233N21090 1923 54 NI BB NOT_NAMED 1923-08-22 15:00:00 TS 22.2935 87.5636 main 0 0 _________PO___ -1 22.3870 87.3272 TC 30 22.2000 87.8000 1 10 290
1923233N21090 1923 54 NI BB NOT_NAMED 1923-08-22 18:00:00 TS 22.4242 87.0823 main 0 0 _________OP___ -1 22.5000 86.9000 TC 30 22.3484 87.2647 1 10 283
1923233N21090 1923 54 NI BB NOT_NAMED 1923-08-22 21:00:00 TS 22.5167 86.5498 main 0 0 _________PP___ -1 22.5728 86.3549 TC 30 22.4606 86.7447 1 9 279
1923233N21090 1923 54 NI BB NOT_NAMED 1923-08-23 00:00:00 TS 22.5712 86.0887 main 0 0 _________OP___ -1 22.6000 85.9000 TC 30 22.5423 86.2773 1 7 277
1923233N21090 1923 54 NI BB NOT_NAMED 1923-08-23 03:00:00 TS 22.5999 85.7987 main 0 0 _________PO___ -1 22.5997 85.6974 TC 30 22.6000 85.9000 1 4 277
1923233N21090 1923 54 NI BB NOT_NAMED 1923-08-23 06:00:00 TS 22.6208 85.6281 main 0 0 _________OP___ -1 22.6000 85.6000 TC 30 22.6416 85.6561 1 3 280
1923233N21090 1923 54 NI BB NOT_NAMED 1923-08-23 09:00:00 TS 22.6532 85.4760 main 0 0 _________PP___ -1 22.6425 85.4500 TC 30 22.6640 85.5020 1 3 285
1923233N21090 1923 54 NI BB NOT_NAMED 1923-08-23 12:00:00 TS 22.6897 85.3484 main 0 0 _________OP___ -1 22.7000 85.3000 TC 30 22.6794 85.3969 1 2 287
1923233N21090 1923 54 NI BB NOT_NAMED 1923-08-23 15:00:00 TS 22.7250 85.2250 main 0 0 _________PO___ -1 22.7500 85.1500 TC 30 22.7000 85.3000 1 2 290
1923233N21090 1923 54 NI BB NOT_NAMED 1923-08-23 18:00:00 TS 22.7711 85.0993 main 0 0 _________OP___ -1 22.8000 85.0000 TC 30 22.7423 85.1986 1 2 294
1923233N21090 1923 54 NI BB NOT_NAMED 1923-08-23 21:00:00 TS 22.8207 84.9924 main 0 0 _________PP___ -1 22.8498 84.8949 TC 30 22.7916 85.0898 1 3 291
1923233N21090 1923 54 NI BB NOT_NAMED 1923-08-24 00:00:00 TS 22.8726 84.8180 main 0 0 _________OP___ -1 22.9000 84.7000 TC 30 22.8451 84.9361 1 5 283
1923233N21090 1923 54 NI BB NOT_NAMED 1923-08-24 03:00:00 TS 22.9251 84.4975 main 0 0 _________PO___ -1 22.9502 84.2950 TC 30 22.9000 84.7000 1 7 278
1923233N21090 1923 54 NI BB NOT_NAMED 1923-08-24 06:00:00 TS 22.9752 84.0702 main 0 0 _________OP___ -1 23.0000 83.8000 TC 30 22.9504 84.3403 1 8 277
1923233N21090 1923 54 NI BB NOT_NAMED 1923-08-24 09:00:00 TS 23.0252 83.6275 main 0 0 _________PP___ -1 23.0498 83.3575 TC 30 23.0005 83.8975 1 9 277
1923233N21090 1923 54 NI BB NOT_NAMED 1923-08-24 12:00:00 TS 23.0751 83.1529 main 0 0 _________OP___ -1 23.1000 82.9000 TC 30 23.0503 83.4059 1 9 276
1923233N21090 1923 54 NI BB NOT_NAMED 1923-08-24 15:00:00 TS 23.1250 82.6500 main 0 0 _________PO___ -1 23.1500 82.4000 TC 30 23.1000 82.9000 1 9 276
1923233N21090 1923 54 NI BB NOT_NAMED 1923-08-24 18:00:00 TS 23.1711 82.1498 main 0 0 _________OP___ -1 23.2000 81.9000 TC 30 23.1422 82.3996 1 9 276
1923233N21090 1923 54 NI BB NOT_NAMED 1923-08-24 21:00:00 TS 23.2140 81.6586 main 0 0 _________PP___ -1 23.2425 81.4199 TC 30 23.1855 81.8973 1 9 276
1923233N21090 1923 54 NI BB NOT_NAMED 1923-08-25 00:00:00 TS 23.2680 81.2107 main 0 0 _________OP___ -1 23.3000 81.0000 TC 30 23.2360 81.4214 1 8 280
1923233N21090 1923 54 NI BB NOT_NAMED 1923-08-25 03:00:00 TS 23.3462 80.8350 main 0 0 _________PO___ -1 23.3923 80.6700 TC 30 23.3000 81.0000 1 7 286
1923233N21090 1923 54 NI BB NOT_NAMED 1923-08-25 06:00:00 TS 23.4445 80.5297 main 0 0 _________OP___ -1 23.5000 80.4000 TC 30 23.3890 80.6594 1 6 291
1923233N21090 1923 54 NI BB NOT_NAMED 1923-08-25 09:00:00 TS 23.5458 80.2550 main 0 0 _________PP___ -1 23.6000 80.1350 TC 30 23.4917 80.3750 1 5 293
1923233N21090 1923 54 NI BB NOT_NAMED 1923-08-25 12:00:00 TS 23.6493 80.0141 main 0 0 _________OP___ -1 23.7000 79.9000 TC 30 23.5985 80.1281 1 5 296
1923233N21090 1923 54 NI BB NOT_NAMED 1923-08-25 15:00:00 TS 23.7537 79.8000 main 0 0 _________PO___ -1 23.8074 79.7000 TC 30 23.7000 79.9000 1 4 296
1923233N21090 1923 54 NI BB NOT_NAMED 1923-08-25 18:00:00 TS 23.8363 79.6000 main 0 0 _________OP___ -1 23.9000 79.5000 TC 30 23.7885 79.6750 1 4 291
1923233N21090 1923 54 NI BB NOT_NAMED 1923-08-25 21:00:00 TS 23.9034 79.3750 main 0 0 _________PP___ -1 23.9601 79.2625 TC 30 23.8655 79.4501 1 4 286
1923233N21090 1923 54 NI BB NOT_NAMED 1923-08-26 00:00:00 TS 23.9565 79.1501 main 0 0 _________OP___ -1 24.0000 79.0000 TC 30 23.9348 79.2251 1 4 286
1923233N21090 1923 54 NI BB NOT_NAMED 1923-08-26 03:00:00 NR 24.0000 79.0000 main 0 __________O___ -1 TC 24.0000 79.0000 1 3 288

About IBTrACS Database

This database is a web-friendly format of International Best Track Archive for Climate Stewardship (IBTrACS), a global best track data archive curated by NOAA dating back to 1842.

Updated: 2021-10-21